sensor_id;sensor_type;location;lat;lon;timestamp;P1;durP1;ratioP1;P2;durP2;ratioP2
42760;SDS011;31672;47.638;19.026;2022-07-05T00:02:45;5.85;;;1.70;;
42760;SDS011;31672;47.638;19.026;2022-07-05T00:07:49;2.35;;;1.55;;
42760;SDS011;31672;47.638;19.026;2022-07-05T00:12:51;3.30;;;1.50;;
42760;SDS011;31672;47.638;19.026;2022-07-05T00:17:54;3.67;;;1.30;;
42760;SDS011;31672;47.638;19.026;2022-07-05T00:22:57;2.30;;;1.30;;
42760;SDS011;31672;47.638;19.026;2022-07-05T00:28:00;4.43;;;1.80;;
42760;SDS011;31672;47.638;19.026;2022-07-05T00:33:04;2.38;;;1.48;;
42760;SDS011;31672;47.638;19.026;2022-07-05T00:38:07;3.85;;;1.48;;
42760;SDS011;31672;47.638;19.026;2022-07-05T00:43:10;3.72;;;1.58;;
42760;SDS011;31672;47.638;19.026;2022-07-05T00:48:13;2.20;;;1.38;;
42760;SDS011;31672;47.638;19.026;2022-07-05T00:53:16;2.58;;;1.20;;
42760;SDS011;31672;47.638;19.026;2022-07-05T00:58:19;2.97;;;1.27;;
42760;SDS011;31672;47.638;19.026;2022-07-05T01:03:22;4.20;;;1.23;;
42760;SDS011;31672;47.638;19.026;2022-07-05T01:08:25;4.10;;;1.40;;
42760;SDS011;31672;47.638;19.026;2022-07-05T01:13:28;2.05;;;1.30;;
42760;SDS011;31672;47.638;19.026;2022-07-05T01:18:32;3.55;;;1.20;;
42760;SDS011;31672;47.638;19.026;2022-07-05T01:23:35;1.33;;;1.20;;
42760;SDS011;31672;47.638;19.026;2022-07-05T01:28:39;1.63;;;1.17;;
42760;SDS011;31672;47.638;19.026;2022-07-05T01:33:42;2.85;;;1.30;;
42760;SDS011;31672;47.638;19.026;2022-07-05T01:38:45;1.80;;;1.10;;
42760;SDS011;31672;47.638;19.026;2022-07-05T01:43:48;2.35;;;1.05;;
42760;SDS011;31672;47.638;19.026;2022-07-05T01:48:53;1.48;;;1.00;;
42760;SDS011;31672;47.638;19.026;2022-07-05T01:54:00;1.45;;;1.10;;
42760;SDS011;31672;47.638;19.026;2022-07-05T01:59:03;2.63;;;1.00;;
42760;SDS011;31672;47.638;19.026;2022-07-05T02:04:08;1.83;;;0.82;;
42760;SDS011;31672;47.638;19.026;2022-07-05T02:09:12;2.45;;;1.10;;
42760;SDS011;31672;47.638;19.026;2022-07-05T02:14:15;2.50;;;0.90;;
42760;SDS011;31672;47.638;19.026;2022-07-05T02:19:18;2.80;;;1.10;;
42760;SDS011;31672;47.638;19.026;2022-07-05T02:24:21;2.42;;;1.10;;
42760;SDS011;31672;47.638;19.026;2022-07-05T02:29:24;2.00;;;1.00;;
42760;SDS011;31672;47.638;19.026;2022-07-05T02:34:28;1.30;;;1.00;;
42760;SDS011;31672;47.638;19.026;2022-07-05T02:39:31;3.90;;;0.98;;
42760;SDS011;31672;47.638;19.026;2022-07-05T02:44:33;3.35;;;1.23;;
42760;SDS011;31672;47.638;19.026;2022-07-05T02:49:37;2.40;;;1.10;;
42760;SDS011;31672;47.638;19.026;2022-07-05T02:54:40;1.38;;;1.10;;
42760;SDS011;31672;47.638;19.026;2022-07-05T02:59:43;2.33;;;1.35;;
42760;SDS011;31672;47.638;19.026;2022-07-05T03:04:47;2.45;;;1.25;;
42760;SDS011;31672;47.638;19.026;2022-07-05T03:09:50;3.35;;;2.00;;
42760;SDS011;31672;47.638;19.026;2022-07-05T03:14:53;2.10;;;1.15;;
42760;SDS011;31672;47.638;19.026;2022-07-05T03:19:55;3.70;;;1.20;;
42760;SDS011;31672;47.638;19.026;2022-07-05T03:24:58;3.53;;;2.03;;
42760;SDS011;31672;47.638;19.026;2022-07-05T03:30:02;3.30;;;1.30;;
42760;SDS011;31672;47.638;19.026;2022-07-05T03:35:06;2.10;;;1.33;;
42760;SDS011;31672;47.638;19.026;2022-07-05T03:40:10;1.70;;;1.23;;
42760;SDS011;31672;47.638;19.026;2022-07-05T03:45:13;2.65;;;1.05;;
42760;SDS011;31672;47.638;19.026;2022-07-05T03:50:16;1.50;;;1.05;;
42760;SDS011;31672;47.638;19.026;2022-07-05T03:55:19;2.85;;;1.23;;
42760;SDS011;31672;47.638;19.026;2022-07-05T04:00:22;1.23;;;1.10;;
42760;SDS011;31672;47.638;19.026;2022-07-05T04:05:25;1.98;;;1.50;;
42760;SDS011;31672;47.638;19.026;2022-07-05T04:10:28;1.75;;;1.25;;
42760;SDS011;31672;47.638;19.026;2022-07-05T04:15:31;3.30;;;1.60;;
42760;SDS011;31672;47.638;19.026;2022-07-05T04:20:34;2.90;;;1.50;;
42760;SDS011;31672;47.638;19.026;2022-07-05T04:25:37;1.15;;;1.00;;
42760;SDS011;31672;47.638;19.026;2022-07-05T04:30:40;2.28;;;1.20;;
42760;SDS011;31672;47.638;19.026;2022-07-05T04:35:44;5.38;;;1.35;;
42760;SDS011;31672;47.638;19.026;2022-07-05T04:40:47;2.40;;;1.23;;
42760;SDS011;31672;47.638;19.026;2022-07-05T04:45:50;4.05;;;1.30;;
42760;SDS011;31672;47.638;19.026;2022-07-05T04:50:57;2.38;;;1.38;;
42760;SDS011;31672;47.638;19.026;2022-07-05T04:56:00;3.80;;;1.23;;
42760;SDS011;31672;47.638;19.026;2022-07-05T05:01:03;3.90;;;1.30;;
42760;SDS011;31672;47.638;19.026;2022-07-05T05:06:06;1.50;;;1.10;;
42760;SDS011;31672;47.638;19.026;2022-07-05T05:11:09;2.50;;;1.20;;
42760;SDS011;31672;47.638;19.026;2022-07-05T05:16:12;3.47;;;1.30;;
42760;SDS011;31672;47.638;19.026;2022-07-05T05:21:15;2.17;;;1.10;;
42760;SDS011;31672;47.638;19.026;2022-07-05T05:26:18;2.00;;;1.00;;
42760;SDS011;31672;47.638;19.026;2022-07-05T05:31:21;3.83;;;1.17;;
42760;SDS011;31672;47.638;19.026;2022-07-05T05:36:24;3.45;;;1.48;;
42760;SDS011;31672;47.638;19.026;2022-07-05T05:41:27;3.25;;;1.60;;
42760;SDS011;31672;47.638;19.026;2022-07-05T05:46:30;3.58;;;1.40;;
42760;SDS011;31672;47.638;19.026;2022-07-05T05:51:33;3.25;;;1.30;;
42760;SDS011;31672;47.638;19.026;2022-07-05T05:56:36;1.40;;;1.30;;
42760;SDS011;31672;47.638;19.026;2022-07-05T06:01:40;2.15;;;1.50;;
42760;SDS011;31672;47.638;19.026;2022-07-05T06:06:43;1.40;;;0.93;;
42760;SDS011;31672;47.638;19.026;2022-07-05T06:11:46;2.65;;;1.17;;
42760;SDS011;31672;47.638;19.026;2022-07-05T06:16:49;4.07;;;1.10;;
42760;SDS011;31672;47.638;19.026;2022-07-05T06:21:52;3.33;;;1.20;;
42760;SDS011;31672;47.638;19.026;2022-07-05T06:27:01;4.00;;;1.37;;
42760;SDS011;31672;47.638;19.026;2022-07-05T06:32:04;2.85;;;1.08;;
42760;SDS011;31672;47.638;19.026;2022-07-05T06:37:08;2.28;;;1.13;;
42760;SDS011;31672;47.638;19.026;2022-07-05T06:42:11;1.52;;;1.40;;
42760;SDS011;31672;47.638;19.026;2022-07-05T06:47:15;2.78;;;1.15;;
42760;SDS011;31672;47.638;19.026;2022-07-05T06:52:18;2.55;;;1.00;;
42760;SDS011;31672;47.638;19.026;2022-07-05T06:57:21;1.38;;;0.95;;
42760;SDS011;31672;47.638;19.026;2022-07-05T07:02:33;2.67;;;1.00;;
42760;SDS011;31672;47.638;19.026;2022-07-05T07:07:37;2.75;;;1.10;;
42760;SDS011;31672;47.638;19.026;2022-07-05T07:12:59;1.45;;;1.00;;
42760;SDS011;31672;47.638;19.026;2022-07-05T07:18:03;1.20;;;0.90;;
42760;SDS011;31672;47.638;19.026;2022-07-05T07:23:06;1.42;;;0.90;;
42760;SDS011;31672;47.638;19.026;2022-07-05T07:28:09;3.80;;;0.80;;
42760;SDS011;31672;47.638;19.026;2022-07-05T07:33:12;1.52;;;0.77;;
42760;SDS011;31672;47.638;19.026;2022-07-05T07:38:35;1.15;;;0.80;;
42760;SDS011;31672;47.638;19.026;2022-07-05T07:43:38;2.03;;;0.90;;
42760;SDS011;31672;47.638;19.026;2022-07-05T07:48:41;2.08;;;0.90;;
42760;SDS011;31672;47.638;19.026;2022-07-05T07:53:43;1.13;;;0.90;;
42760;SDS011;31672;47.638;19.026;2022-07-05T07:58:47;2.08;;;0.82;;
42760;SDS011;31672;47.638;19.026;2022-07-05T08:03:50;1.70;;;0.98;;
42760;SDS011;31672;47.638;19.026;2022-07-05T08:08:54;1.88;;;1.00;;
42760;SDS011;31672;47.638;19.026;2022-07-05T08:13:57;2.88;;;0.70;;
42760;SDS011;31672;47.638;19.026;2022-07-05T08:18:59;3.78;;;0.90;;
42760;SDS011;31672;47.638;19.026;2022-07-05T08:24:21;2.50;;;0.95;;
42760;SDS011;31672;47.638;19.026;2022-07-05T08:29:24;2.55;;;0.85;;
42760;SDS011;31672;47.638;19.026;2022-07-05T08:34:27;2.53;;;0.82;;
42760;SDS011;31672;47.638;19.026;2022-07-05T08:39:31;2.00;;;1.00;;
42760;SDS011;31672;47.638;19.026;2022-07-05T08:44:34;1.00;;;0.90;;
42760;SDS011;31672;47.638;19.026;2022-07-05T08:49:41;1.80;;;0.90;;
42760;SDS011;31672;47.638;19.026;2022-07-05T08:54:49;3.23;;;1.03;;
42760;SDS011;31672;47.638;19.026;2022-07-05T08:59:55;1.73;;;0.98;;
42760;SDS011;31672;47.638;19.026;2022-07-05T09:04:58;1.40;;;1.00;;
42760;SDS011;31672;47.638;19.026;2022-07-05T09:10:02;1.73;;;0.80;;
42760;SDS011;31672;47.638;19.026;2022-07-05T09:15:06;2.35;;;0.80;;
42760;SDS011;31672;47.638;19.026;2022-07-05T09:20:10;1.25;;;0.70;;
42760;SDS011;31672;47.638;19.026;2022-07-05T09:30:34;2.30;;;1.10;;
42760;SDS011;31672;47.638;19.026;2022-07-05T09:35:53;4.55;;;1.10;;
42760;SDS011;31672;47.638;19.026;2022-07-05T09:41:02;1.43;;;0.97;;
42760;SDS011;31672;47.638;19.026;2022-07-05T09:46:05;3.20;;;1.05;;
42760;SDS011;31672;47.638;19.026;2022-07-05T09:51:10;3.40;;;1.45;;
42760;SDS011;31672;47.638;19.026;2022-07-05T09:56:44;1.88;;;1.40;;
42760;SDS011;31672;47.638;19.026;2022-07-05T10:01:49;2.55;;;1.20;;
42760;SDS011;31672;47.638;19.026;2022-07-05T10:06:54;1.90;;;1.20;;
42760;SDS011;31672;47.638;19.026;2022-07-05T10:11:57;1.95;;;1.10;;
42760;SDS011;31672;47.638;19.026;2022-07-05T10:17:00;2.15;;;1.15;;
42760;SDS011;31672;47.638;19.026;2022-07-05T10:22:04;2.00;;;1.10;;
42760;SDS011;31672;47.638;19.026;2022-07-05T10:32:28;2.25;;;1.27;;
42760;SDS011;31672;47.638;19.026;2022-07-05T10:37:32;3.80;;;1.77;;
42760;SDS011;31672;47.638;19.026;2022-07-05T10:42:41;4.72;;;1.92;;
42760;SDS011;31672;47.638;19.026;2022-07-05T10:53:17;4.53;;;2.15;;
42760;SDS011;31672;47.638;19.026;2022-07-05T10:58:24;4.97;;;2.30;;
42760;SDS011;31672;47.638;19.026;2022-07-05T11:03:35;3.80;;;2.00;;
42760;SDS011;31672;47.638;19.026;2022-07-05T11:19:24;2.33;;;1.90;;
42760;SDS011;31672;47.638;19.026;2022-07-05T11:24:28;2.38;;;1.52;;
42760;SDS011;31672;47.638;19.026;2022-07-05T11:29:42;2.30;;;1.40;;
42760;SDS011;31672;47.638;19.026;2022-07-05T11:34:52;2.80;;;1.50;;
42760;SDS011;31672;47.638;19.026;2022-07-05T11:45:16;3.10;;;1.65;;
42760;SDS011;31672;47.638;19.026;2022-07-05T11:50:24;2.58;;;1.90;;
42760;SDS011;31672;47.638;19.026;2022-07-05T11:55:30;1.92;;;1.40;;
42760;SDS011;31672;47.638;19.026;2022-07-05T12:00:35;2.95;;;1.60;;
42760;SDS011;31672;47.638;19.026;2022-07-05T12:05:39;2.53;;;1.63;;
42760;SDS011;31672;47.638;19.026;2022-07-05T12:10:45;2.63;;;1.63;;
42760;SDS011;31672;47.638;19.026;2022-07-05T12:16:16;2.03;;;1.40;;
42760;SDS011;31672;47.638;19.026;2022-07-05T12:21:20;2.83;;;1.73;;
42760;SDS011;31672;47.638;19.026;2022-07-05T12:26:23;2.20;;;1.60;;
42760;SDS011;31672;47.638;19.026;2022-07-05T12:31:26;3.95;;;1.60;;
42760;SDS011;31672;47.638;19.026;2022-07-05T12:36:30;2.30;;;1.40;;
42760;SDS011;31672;47.638;19.026;2022-07-05T12:41:33;1.92;;;1.35;;
42760;SDS011;31672;47.638;19.026;2022-07-05T12:46:40;1.80;;;1.45;;
42760;SDS011;31672;47.638;19.026;2022-07-05T12:51:45;2.05;;;1.50;;
42760;SDS011;31672;47.638;19.026;2022-07-05T12:56:52;2.20;;;1.48;;
42760;SDS011;31672;47.638;19.026;2022-07-05T13:02:48;1.70;;;1.33;;
42760;SDS011;31672;47.638;19.026;2022-07-05T13:07:52;2.05;;;1.35;;
42760;SDS011;31672;47.638;19.026;2022-07-05T13:12:57;1.42;;;1.30;;
42760;SDS011;31672;47.638;19.026;2022-07-05T13:18:00;2.20;;;1.63;;
42760;SDS011;31672;47.638;19.026;2022-07-05T13:23:03;3.00;;;1.40;;
42760;SDS011;31672;47.638;19.026;2022-07-05T13:28:06;2.17;;;1.17;;
42760;SDS011;31672;47.638;19.026;2022-07-05T13:33:09;2.47;;;1.30;;
42760;SDS011;31672;47.638;19.026;2022-07-05T13:38:12;3.25;;;1.58;;
42760;SDS011;31672;47.638;19.026;2022-07-05T13:43:15;1.95;;;1.40;;
42760;SDS011;31672;47.638;19.026;2022-07-05T13:48:18;2.22;;;1.42;;
42760;SDS011;31672;47.638;19.026;2022-07-05T13:53:21;1.45;;;1.10;;
42760;SDS011;31672;47.638;19.026;2022-07-05T13:58:24;1.52;;;1.30;;
42760;SDS011;31672;47.638;19.026;2022-07-05T14:03:27;1.45;;;1.20;;
42760;SDS011;31672;47.638;19.026;2022-07-05T14:08:30;2.88;;;1.20;;
42760;SDS011;31672;47.638;19.026;2022-07-05T14:13:33;2.22;;;1.38;;
42760;SDS011;31672;47.638;19.026;2022-07-05T14:18:37;2.72;;;1.30;;
42760;SDS011;31672;47.638;19.026;2022-07-05T14:23:40;2.67;;;1.50;;
42760;SDS011;31672;47.638;19.026;2022-07-05T14:28:44;1.50;;;1.20;;
42760;SDS011;31672;47.638;19.026;2022-07-05T14:33:47;1.27;;;1.00;;
42760;SDS011;31672;47.638;19.026;2022-07-05T14:38:51;2.25;;;1.30;;
42760;SDS011;31672;47.638;19.026;2022-07-05T14:43:54;2.55;;;1.20;;
42760;SDS011;31672;47.638;19.026;2022-07-05T14:48:58;2.42;;;1.38;;
42760;SDS011;31672;47.638;19.026;2022-07-05T14:54:01;2.28;;;1.40;;
42760;SDS011;31672;47.638;19.026;2022-07-05T14:59:04;2.63;;;1.45;;
42760;SDS011;31672;47.638;19.026;2022-07-05T15:04:07;2.13;;;1.40;;
42760;SDS011;31672;47.638;19.026;2022-07-05T15:09:10;1.95;;;1.75;;
42760;SDS011;31672;47.638;19.026;2022-07-05T15:14:13;3.25;;;1.50;;
42760;SDS011;31672;47.638;19.026;2022-07-05T15:19:16;1.63;;;1.50;;
42760;SDS011;31672;47.638;19.026;2022-07-05T15:24:20;2.13;;;1.55;;
42760;SDS011;31672;47.638;19.026;2022-07-05T15:29:23;1.73;;;1.60;;
42760;SDS011;31672;47.638;19.026;2022-07-05T15:34:27;3.38;;;1.80;;
42760;SDS011;31672;47.638;19.026;2022-07-05T15:39:30;2.20;;;1.70;;
42760;SDS011;31672;47.638;19.026;2022-07-05T15:44:35;2.40;;;1.80;;
42760;SDS011;31672;47.638;19.026;2022-07-05T15:49:38;2.47;;;1.73;;
42760;SDS011;31672;47.638;19.026;2022-07-05T15:54:41;2.13;;;1.70;;
42760;SDS011;31672;47.638;19.026;2022-07-05T15:59:43;1.63;;;1.50;;
42760;SDS011;31672;47.638;19.026;2022-07-05T16:04:47;2.25;;;1.70;;
42760;SDS011;31672;47.638;19.026;2022-07-05T16:09:50;1.88;;;1.65;;
42760;SDS011;31672;47.638;19.026;2022-07-05T16:15:15;2.40;;;1.90;;
42760;SDS011;31672;47.638;19.026;2022-07-05T16:20:40;2.60;;;1.58;;
42760;SDS011;31672;47.638;19.026;2022-07-05T16:25:44;2.00;;;1.80;;
42760;SDS011;31672;47.638;19.026;2022-07-05T16:30:48;1.95;;;1.75;;
42760;SDS011;31672;47.638;19.026;2022-07-05T16:35:51;1.95;;;1.70;;
42760;SDS011;31672;47.638;19.026;2022-07-05T16:40:53;2.10;;;1.80;;
42760;SDS011;31672;47.638;19.026;2022-07-05T16:45:56;2.20;;;2.00;;
42760;SDS011;31672;47.638;19.026;2022-07-05T16:51:00;2.10;;;1.90;;
42760;SDS011;31672;47.638;19.026;2022-07-05T16:56:06;2.70;;;1.75;;
42760;SDS011;31672;47.638;19.026;2022-07-05T17:01:13;2.33;;;2.13;;
42760;SDS011;31672;47.638;19.026;2022-07-05T17:06:19;3.75;;;2.50;;
42760;SDS011;31672;47.638;19.026;2022-07-05T17:11:22;3.88;;;2.60;;
42760;SDS011;31672;47.638;19.026;2022-07-05T17:16:26;2.85;;;2.53;;
42760;SDS011;31672;47.638;19.026;2022-07-05T17:21:29;2.97;;;2.28;;
42760;SDS011;31672;47.638;19.026;2022-07-05T17:26:32;3.72;;;2.40;;
42760;SDS011;31672;47.638;19.026;2022-07-05T17:31:37;3.08;;;2.55;;
42760;SDS011;31672;47.638;19.026;2022-07-05T17:36:41;2.88;;;2.35;;
42760;SDS011;31672;47.638;19.026;2022-07-05T17:41:43;3.65;;;2.13;;
42760;SDS011;31672;47.638;19.026;2022-07-05T17:46:46;5.13;;;2.90;;
42760;SDS011;31672;47.638;19.026;2022-07-05T17:51:49;2.58;;;2.38;;
42760;SDS011;31672;47.638;19.026;2022-07-05T17:57:12;3.38;;;2.10;;
42760;SDS011;31672;47.638;19.026;2022-07-05T18:02:15;4.65;;;2.70;;
42760;SDS011;31672;47.638;19.026;2022-07-05T18:07:18;2.50;;;2.20;;
42760;SDS011;31672;47.638;19.026;2022-07-05T18:12:21;3.33;;;2.35;;
42760;SDS011;31672;47.638;19.026;2022-07-05T18:17:24;3.17;;;2.38;;
42760;SDS011;31672;47.638;19.026;2022-07-05T18:22:27;3.83;;;2.28;;
42760;SDS011;31672;47.638;19.026;2022-07-05T18:27:30;2.85;;;2.35;;
42760;SDS011;31672;47.638;19.026;2022-07-05T18:32:33;2.90;;;2.60;;
42760;SDS011;31672;47.638;19.026;2022-07-05T18:37:42;3.10;;;2.20;;
42760;SDS011;31672;47.638;19.026;2022-07-05T18:42:45;2.20;;;1.88;;
42760;SDS011;31672;47.638;19.026;2022-07-05T18:47:48;3.53;;;1.88;;
42760;SDS011;31672;47.638;19.026;2022-07-05T18:52:53;1.90;;;1.70;;
42760;SDS011;31672;47.638;19.026;2022-07-05T18:57:56;1.98;;;1.75;;
42760;SDS011;31672;47.638;19.026;2022-07-05T19:02:59;2.20;;;1.60;;
42760;SDS011;31672;47.638;19.026;2022-07-05T19:08:01;2.40;;;2.00;;
42760;SDS011;31672;47.638;19.026;2022-07-05T19:13:23;3.58;;;1.67;;
42760;SDS011;31672;47.638;19.026;2022-07-05T19:18:44;2.67;;;2.00;;
42760;SDS011;31672;47.638;19.026;2022-07-05T19:23:48;2.40;;;1.70;;
42760;SDS011;31672;47.638;19.026;2022-07-05T19:28:51;2.40;;;1.67;;
42760;SDS011;31672;47.638;19.026;2022-07-05T19:33:54;1.92;;;1.58;;
42760;SDS011;31672;47.638;19.026;2022-07-05T19:38:57;2.65;;;1.67;;
42760;SDS011;31672;47.638;19.026;2022-07-05T19:44:00;2.08;;;1.80;;
42760;SDS011;31672;47.638;19.026;2022-07-05T19:49:04;2.80;;;1.60;;
42760;SDS011;31672;47.638;19.026;2022-07-05T19:54:07;2.38;;;1.50;;
42760;SDS011;31672;47.638;19.026;2022-07-05T19:59:10;2.70;;;1.70;;
42760;SDS011;31672;47.638;19.026;2022-07-05T20:04:13;2.95;;;1.80;;
42760;SDS011;31672;47.638;19.026;2022-07-05T20:09:19;2.33;;;1.77;;
42760;SDS011;31672;47.638;19.026;2022-07-05T20:14:22;2.42;;;2.05;;
42760;SDS011;31672;47.638;19.026;2022-07-05T20:19:25;2.45;;;2.17;;
42760;SDS011;31672;47.638;19.026;2022-07-05T20:24:28;3.33;;;2.03;;
42760;SDS011;31672;47.638;19.026;2022-07-05T20:29:31;3.20;;;2.35;;
42760;SDS011;31672;47.638;19.026;2022-07-05T20:34:34;4.40;;;2.20;;
42760;SDS011;31672;47.638;19.026;2022-07-05T20:39:38;3.00;;;2.42;;
42760;SDS011;31672;47.638;19.026;2022-07-05T20:44:41;2.85;;;2.28;;
42760;SDS011;31672;47.638;19.026;2022-07-05T20:49:44;3.25;;;2.17;;
42760;SDS011;31672;47.638;19.026;2022-07-05T20:54:48;2.65;;;2.17;;
42760;SDS011;31672;47.638;19.026;2022-07-05T20:59:51;3.40;;;2.30;;
42760;SDS011;31672;47.638;19.026;2022-07-05T21:04:54;2.78;;;2.47;;
42760;SDS011;31672;47.638;19.026;2022-07-05T21:09:57;2.20;;;2.00;;
42760;SDS011;31672;47.638;19.026;2022-07-05T21:15:01;2.95;;;2.10;;
42760;SDS011;31672;47.638;19.026;2022-07-05T21:20:05;3.00;;;2.30;;
42760;SDS011;31672;47.638;19.026;2022-07-05T21:25:11;3.15;;;2.05;;
42760;SDS011;31672;47.638;19.026;2022-07-05T21:30:14;3.20;;;2.20;;
42760;SDS011;31672;47.638;19.026;2022-07-05T21:35:17;2.03;;;1.70;;
42760;SDS011;31672;47.638;19.026;2022-07-05T21:40:20;2.72;;;2.20;;
42760;SDS011;31672;47.638;19.026;2022-07-05T21:45:23;3.05;;;2.08;;
42760;SDS011;31672;47.638;19.026;2022-07-05T21:50:26;3.15;;;2.53;;
42760;SDS011;31672;47.638;19.026;2022-07-05T21:55:30;3.95;;;2.60;;
42760;SDS011;31672;47.638;19.026;2022-07-05T22:00:33;3.88;;;3.08;;
42760;SDS011;31672;47.638;19.026;2022-07-05T22:05:54;4.10;;;3.72;;
42760;SDS011;31672;47.638;19.026;2022-07-05T22:10:58;5.28;;;4.40;;
42760;SDS011;31672;47.638;19.026;2022-07-05T22:16:19;5.85;;;4.32;;
42760;SDS011;31672;47.638;19.026;2022-07-05T22:21:22;4.82;;;4.38;;
42760;SDS011;31672;47.638;19.026;2022-07-05T22:26:25;4.90;;;4.50;;
42760;SDS011;31672;47.638;19.026;2022-07-05T22:31:34;5.88;;;5.25;;
42760;SDS011;31672;47.638;19.026;2022-07-05T22:36:37;6.20;;;5.60;;
42760;SDS011;31672;47.638;19.026;2022-07-05T22:41:40;6.22;;;5.55;;
42760;SDS011;31672;47.638;19.026;2022-07-05T22:46:43;7.78;;;5.93;;
42760;SDS011;31672;47.638;19.026;2022-07-05T22:51:47;5.60;;;5.03;;
42760;SDS011;31672;47.638;19.026;2022-07-05T22:56:50;5.85;;;5.28;;
42760;SDS011;31672;47.638;19.026;2022-07-05T23:01:53;5.53;;;5.00;;
42760;SDS011;31672;47.638;19.026;2022-07-05T23:06:56;7.15;;;5.35;;
42760;SDS011;31672;47.638;19.026;2022-07-05T23:11:59;5.32;;;4.72;;
42760;SDS011;31672;47.638;19.026;2022-07-05T23:17:02;6.75;;;4.60;;
42760;SDS011;31672;47.638;19.026;2022-07-05T23:22:05;6.40;;;5.43;;
42760;SDS011;31672;47.638;19.026;2022-07-05T23:27:08;6.32;;;5.03;;
42760;SDS011;31672;47.638;19.026;2022-07-05T23:32:11;6.30;;;5.30;;
42760;SDS011;31672;47.638;19.026;2022-07-05T23:37:14;5.72;;;4.80;;
42760;SDS011;31672;47.638;19.026;2022-07-05T23:42:20;4.95;;;4.47;;
42760;SDS011;31672;47.638;19.026;2022-07-05T23:47:23;4.70;;;4.22;;
42760;SDS011;31672;47.638;19.026;2022-07-05T23:52:26;4.55;;;4.10;;
42760;SDS011;31672;47.638;19.026;2022-07-05T23:57:29;5.72;;;4.70;;
